createdAt,value
2018-12-26T00:02:08.157Z,26.67
2018-12-26T00:04:37.493Z,24.37
2018-12-26T00:07:06.702Z,28.20
2018-12-26T00:09:36.486Z,25.03
2018-12-26T00:12:05.872Z,32.03
2018-12-26T00:14:35.720Z,24.70
2018-12-26T00:17:05.057Z,31.20
2018-12-26T00:19:35.251Z,28.70
2018-12-26T00:22:04.749Z,26.53
2018-12-26T00:24:34.545Z,26.40
2018-12-26T00:27:04.491Z,23.67
2018-12-26T00:29:33.832Z,28.13
2018-12-26T00:32:03.053Z,28.50
2018-12-26T00:34:32.835Z,24.50
2018-12-26T00:37:02.149Z,23.87
2018-12-26T00:39:31.320Z,24.77
2018-12-26T00:42:01.327Z,29.23
2018-12-26T00:44:30.664Z,25.50
2018-12-26T00:46:59.813Z,28.23
2018-12-26T00:49:29.647Z,25.97
2018-12-26T00:51:59.673Z,28.93
2018-12-26T00:54:28.988Z,30.70
2018-12-26T00:56:58.857Z,27.70
2018-12-26T00:59:29.134Z,28.37
2018-12-26T01:01:59.085Z,28.37
2018-12-26T01:04:28.945Z,29.03
2018-12-26T01:06:58.806Z,28.33
2018-12-26T01:09:28.742Z,21.87
2018-12-26T01:11:58.707Z,23.40
2018-12-26T01:14:28.617Z,20.83
2018-12-26T01:16:58.555Z,21.20
2018-12-26T01:19:28.503Z,21.30
2018-12-26T01:21:58.465Z,20.47
2018-12-26T01:24:28.399Z,23.80
2018-12-26T01:26:58.348Z,20.73
2018-12-26T01:29:28.216Z,22.80
2018-12-26T01:31:57.548Z,23.00
2018-12-26T01:34:26.706Z,23.67
2018-12-26T01:36:55.943Z,24.77
2018-12-26T01:39:25.168Z,22.47
2018-12-26T01:41:55.013Z,24.00
2018-12-26T01:44:24.245Z,25.67
2018-12-26T01:46:53.413Z,23.60
2018-12-26T01:49:23.566Z,20.03
2018-12-26T01:51:53.541Z,24.60
2018-12-26T01:54:23.517Z,23.00
2018-12-26T01:56:53.467Z,25.70
2018-12-26T01:59:22.780Z,22.97
2018-12-26T02:01:52.589Z,23.77
2018-12-26T02:04:22.554Z,22.10
2018-12-26T02:06:51.922Z,19.97
2018-12-26T02:09:21.102Z,21.40
2018-12-26T02:11:50.999Z,22.50
2018-12-26T02:14:20.325Z,23.30
2018-12-26T02:16:49.570Z,19.53
2018-12-26T02:19:19.438Z,22.40
2018-12-26T02:21:50.054Z,19.90
2018-12-26T02:24:19.992Z,20.43
2018-12-26T02:26:49.854Z,18.93
2018-12-26T02:29:19.787Z,23.33
2018-12-26T02:31:49.780Z,22.47
2018-12-26T02:34:19.823Z,21.47
2018-12-26T02:36:49.755Z,18.87
2018-12-26T02:39:19.723Z,20.80
2018-12-26T02:41:49.923Z,17.63
2018-12-26T02:44:19.251Z,20.80
2018-12-26T02:46:48.467Z,23.40
2018-12-26T02:49:18.337Z,24.10
2018-12-26T02:51:48.586Z,22.50
2018-12-26T02:54:17.845Z,21.97
2018-12-26T02:56:49.174Z,22.27
2018-12-26T02:59:19.134Z,20.40
2018-12-26T03:01:48.429Z,24.93
2018-12-26T03:04:18.220Z,22.93
2018-12-26T03:06:47.558Z,24.07
2018-12-26T03:09:16.797Z,25.00
2018-12-26T03:11:46.005Z,23.23
2018-12-26T03:14:15.973Z,21.60
2018-12-26T03:16:45.874Z,22.57
2018-12-26T03:19:15.161Z,25.33
2018-12-26T03:21:44.382Z,23.57
2018-12-26T03:24:14.230Z,26.43
2018-12-26T03:26:44.054Z,27.03
2018-12-26T03:29:13.972Z,25.53
2018-12-26T03:31:43.832Z,21.30
2018-12-26T03:34:13.139Z,25.03
2018-12-26T03:36:42.947Z,21.27
2018-12-26T03:39:12.273Z,18.60
2018-12-26T03:41:41.424Z,17.80
2018-12-26T03:44:11.710Z,20.83
2018-12-26T03:46:42.142Z,18.10
2018-12-26T03:49:11.436Z,21.70
2018-12-26T03:51:41.229Z,16.80
2018-12-26T03:54:11.350Z,17.10
2018-12-26T03:56:41.289Z,18.97
2018-12-26T03:59:11.410Z,17.37
2018-12-26T04:01:41.298Z,18.53
2018-12-26T04:04:11.235Z,23.87
2018-12-26T04:06:40.509Z,20.53
2018-12-26T04:09:10.281Z,17.97
2018-12-26T04:11:39.675Z,14.00
2018-12-26T04:14:08.843Z,16.23
2018-12-26T04:16:38.042Z,16.20
2018-12-26T04:19:07.898Z,15.93
2018-12-26T04:21:37.192Z,19.73
2018-12-26T04:24:07.039Z,14.23
2018-12-26T04:26:36.942Z,15.90
2018-12-26T04:29:06.839Z,14.23
2018-12-26T04:31:36.766Z,15.30
2018-12-26T04:34:06.090Z,14.77
2018-12-26T04:36:35.924Z,13.77
2018-12-26T04:39:07.241Z,11.00
2018-12-26T04:41:37.165Z,10.00
2018-12-26T04:44:07.106Z,12.47
2018-12-26T04:46:37.390Z,12.13
2018-12-26T04:49:07.774Z,15.10
2018-12-26T04:51:37.090Z,11.67
2018-12-26T04:54:06.296Z,12.93
2018-12-26T04:56:36.147Z,11.27
2018-12-26T04:59:06.061Z,12.37
2018-12-26T05:01:35.297Z,12.77
2018-12-26T05:04:04.869Z,11.20
2018-12-26T05:06:34.113Z,12.33
2018-12-26T05:09:04.788Z,14.47
2018-12-26T05:11:34.646Z,11.70
2018-12-26T05:14:03.965Z,12.67
2018-12-26T05:16:33.402Z,9.53
2018-12-26T05:19:03.563Z,10.43
2018-12-26T05:21:33.500Z,10.60
2018-12-26T05:24:03.389Z,9.33
2018-12-26T05:26:32.643Z,10.07
2018-12-26T05:29:02.511Z,10.77
2018-12-26T05:31:32.458Z,10.17
2018-12-26T05:34:02.300Z,10.30
2018-12-26T05:36:31.653Z,11.90
2018-12-26T05:39:01.384Z,7.80
2018-12-26T05:41:30.705Z,8.80
2018-12-26T05:44:00.445Z,8.50
2018-12-26T05:46:30.366Z,9.30
2018-12-26T05:49:00.257Z,9.80
2018-12-26T05:51:30.193Z,8.93
2018-12-26T05:53:59.500Z,8.57
2018-12-26T05:56:29.277Z,8.30
2018-12-26T05:58:59.474Z,10.57
2018-12-26T06:01:29.309Z,7.20
2018-12-26T06:03:59.166Z,8.87
2018-12-26T06:06:29.142Z,9.57
2018-12-26T06:08:59.056Z,9.03
2018-12-26T06:11:28.937Z,7.07
2018-12-26T06:13:58.165Z,12.07
2018-12-26T06:16:28.268Z,9.27
2018-12-26T06:18:57.539Z,8.87
2018-12-26T06:21:26.804Z,9.70
2018-12-26T06:23:56.577Z,10.60
2018-12-26T06:26:26.426Z,10.80
2018-12-26T06:28:56.375Z,14.87
2018-12-26T06:31:26.640Z,12.27
2018-12-26T06:33:56.543Z,12.77
2018-12-26T06:36:26.378Z,14.60
2018-12-26T06:38:55.702Z,14.80
2018-12-26T06:41:25.452Z,16.33
2018-12-26T06:43:55.388Z,15.20
2018-12-26T06:46:25.279Z,14.33
2018-12-26T06:48:55.224Z,15.13
2018-12-26T06:51:25.121Z,13.87
2018-12-26T06:53:54.973Z,15.47
2018-12-26T06:56:24.909Z,15.20
2018-12-26T06:58:54.789Z,14.07
2018-12-26T07:01:24.673Z,15.07
2018-12-26T07:03:53.998Z,17.17
2018-12-26T07:06:23.740Z,18.23
2018-12-26T07:08:53.679Z,15.00
2018-12-26T07:11:23.614Z,14.10
2018-12-26T07:13:52.952Z,16.47
2018-12-26T07:16:22.402Z,16.10
2018-12-26T07:18:52.190Z,18.77
2018-12-26T07:21:22.127Z,18.33
2018-12-26T07:23:51.464Z,16.17
2018-12-26T07:26:20.794Z,17.77
2018-12-26T07:28:50.586Z,14.07
2018-12-26T07:31:21.593Z,17.93
2018-12-26T07:33:51.512Z,20.53
2018-12-26T07:36:20.742Z,20.10
2018-12-26T07:38:50.588Z,19.00
2018-12-26T07:41:20.986Z,16.00
2018-12-26T07:43:50.228Z,18.60
2018-12-26T07:46:20.101Z,16.53
2018-12-26T07:48:50.052Z,17.20
2018-12-26T07:51:20.267Z,17.57
2018-12-26T07:53:50.342Z,18.20
2018-12-26T07:56:20.180Z,18.13
2018-12-26T07:58:50.110Z,15.23
2018-12-26T08:01:20.029Z,16.97
2018-12-26T08:03:49.963Z,15.33
2018-12-26T08:06:19.193Z,16.33
2018-12-26T08:08:48.405Z,14.50
2018-12-26T08:11:18.198Z,16.77
2018-12-26T08:13:47.529Z,15.00
2018-12-26T08:16:17.671Z,15.00
2018-12-26T08:18:47.621Z,15.27
2018-12-26T08:21:17.447Z,16.27
2018-12-26T08:23:46.786Z,14.87
2018-12-26T08:26:16.613Z,15.17
2018-12-26T08:28:46.017Z,13.97
2018-12-26T08:31:15.757Z,12.53
2018-12-26T08:33:45.661Z,10.03
2018-12-26T08:36:14.962Z,9.63
2018-12-26T08:38:44.833Z,10.00
2018-12-26T08:41:15.094Z,8.43
2018-12-26T08:43:44.430Z,8.20
2018-12-26T08:46:14.511Z,10.33
2018-12-26T08:48:44.398Z,8.00
2018-12-26T08:51:14.269Z,8.10
2018-12-26T08:53:44.169Z,8.43
2018-12-26T08:56:13.522Z,6.90
2018-12-26T08:58:42.718Z,7.10
2018-12-26T09:01:12.570Z,8.37
2018-12-26T09:03:42.457Z,7.93
2018-12-26T09:06:12.399Z,8.13
2018-12-26T09:08:42.310Z,6.57
2018-12-26T09:11:12.241Z,7.67
2018-12-26T09:13:42.209Z,7.10
2018-12-26T09:16:12.059Z,6.80
2018-12-26T09:18:41.981Z,7.17
2018-12-26T09:21:11.833Z,5.87
2018-12-26T09:23:41.725Z,5.83
2018-12-26T09:26:13.067Z,4.43
2018-12-26T09:28:43.925Z,5.63
2018-12-26T09:31:14.113Z,5.63
2018-12-26T09:33:44.243Z,5.37
2018-12-26T09:36:14.205Z,5.13
2018-12-26T09:38:44.028Z,5.57
2018-12-26T09:41:13.901Z,5.10
2018-12-26T09:43:43.779Z,5.50
2018-12-26T09:46:13.626Z,5.60
2018-12-26T09:48:43.452Z,4.73
2018-12-26T09:51:13.358Z,5.50
2018-12-26T09:53:42.657Z,4.80
2018-12-26T09:56:12.470Z,5.13
2018-12-26T09:58:42.362Z,7.73
2018-12-26T10:01:12.293Z,6.00
2018-12-26T10:03:42.113Z,6.40
2018-12-26T10:06:11.945Z,6.87
2018-12-26T10:08:41.843Z,5.63
2018-12-26T10:11:11.840Z,5.17
2018-12-26T10:13:41.741Z,5.87
2018-12-26T10:16:11.655Z,5.17
2018-12-26T10:18:41.562Z,4.63
2018-12-26T10:21:10.954Z,5.10
2018-12-26T10:23:40.207Z,5.27
2018-12-26T10:26:09.963Z,6.00
2018-12-26T10:28:39.249Z,6.00
2018-12-26T10:31:09.493Z,5.70
2018-12-26T10:33:39.440Z,6.00
2018-12-26T10:36:09.337Z,6.93
2018-12-26T10:38:38.565Z,4.43
2018-12-26T10:41:07.825Z,4.93
2018-12-26T10:43:37.350Z,5.53
2018-12-26T10:46:07.181Z,5.03
2018-12-26T10:48:36.401Z,5.43
2018-12-26T10:51:06.165Z,6.27
2018-12-26T10:53:35.406Z,6.50
2018-12-26T10:56:05.525Z,6.30
2018-12-26T10:58:35.624Z,4.87
2018-12-26T11:01:05.509Z,4.20
2018-12-26T11:03:35.515Z,4.70
2018-12-26T11:06:06.614Z,4.57
2018-12-26T11:08:35.952Z,3.80
2018-12-26T11:11:05.840Z,6.03
2018-12-26T11:13:35.761Z,5.80
2018-12-26T11:16:05.664Z,4.80
2018-12-26T11:18:35.614Z,4.70
2018-12-26T11:21:05.825Z,5.57
2018-12-26T11:23:35.870Z,5.53
2018-12-26T11:26:06.124Z,5.83
2018-12-26T11:28:36.069Z,6.60
2018-12-26T11:31:06.016Z,4.93
2018-12-26T11:33:35.861Z,7.13
2018-12-26T11:36:05.901Z,7.07
2018-12-26T11:38:36.580Z,9.63
2018-12-26T11:41:06.499Z,9.20
2018-12-26T11:43:36.414Z,9.55
2018-12-26T11:46:06.338Z,8.63
2018-12-26T11:48:36.305Z,10.07
2018-12-26T11:51:06.658Z,9.63
2018-12-26T11:53:36.616Z,9.63
2018-12-26T11:56:05.965Z,9.50
2018-12-26T11:58:35.193Z,13.47
2018-12-26T12:01:04.452Z,9.67
2018-12-26T12:03:34.526Z,9.03
2018-12-26T12:06:04.461Z,10.93
2018-12-26T12:08:33.916Z,8.20
2018-12-26T12:11:03.826Z,11.43
2018-12-26T12:13:33.744Z,10.67
2018-12-26T12:16:03.632Z,12.37
2018-12-26T12:18:33.614Z,10.63
2018-12-26T12:21:03.559Z,12.40
2018-12-26T12:23:33.595Z,11.17
2018-12-26T12:26:03.611Z,11.77
2018-12-26T12:28:33.489Z,16.00
2018-12-26T12:31:02.840Z,13.57
2018-12-26T12:33:32.707Z,16.63
2018-12-26T12:36:02.640Z,15.23
2018-12-26T12:38:34.501Z,15.10
2018-12-26T12:41:04.394Z,13.87
2018-12-26T12:43:34.364Z,15.57
2018-12-26T12:46:04.309Z,17.30
2018-12-26T12:48:33.661Z,18.57
2018-12-26T12:51:05.972Z,17.40
2018-12-26T12:53:51.254Z,16.70
2018-12-26T12:56:20.640Z,17.40
2018-12-26T12:58:50.592Z,17.00
2018-12-26T13:01:43.575Z,15.77
2018-12-26T13:04:09.174Z,14.80
2018-12-26T13:06:39.362Z,17.57
2018-12-26T13:09:09.465Z,15.57
2018-12-26T13:11:38.777Z,18.17
2018-12-26T13:14:08.566Z,15.33
2018-12-26T13:16:38.432Z,15.10
2018-12-26T13:19:08.362Z,16.27
2018-12-26T13:21:37.704Z,16.73
2018-12-26T13:24:07.612Z,14.40
2018-12-26T13:26:37.429Z,16.60
2018-12-26T13:29:06.729Z,14.63
2018-12-26T13:31:36.662Z,13.43
2018-12-26T13:34:06.232Z,15.50
2018-12-26T13:36:35.435Z,13.53
2018-12-26T13:39:07.230Z,14.97
2018-12-26T13:41:38.065Z,15.43
2018-12-26T13:44:07.993Z,13.50
2018-12-26T13:46:37.299Z,14.97
2018-12-26T13:49:07.166Z,14.47
2018-12-26T13:51:37.188Z,15.00
2018-12-26T13:54:07.057Z,13.73
2018-12-26T13:56:36.945Z,14.60
2018-12-26T13:59:06.857Z,15.97
2018-12-26T14:01:36.249Z,14.03
2018-12-26T14:04:05.397Z,15.40
2018-12-26T14:06:35.573Z,15.37
2018-12-26T14:09:06.126Z,20.00
2018-12-26T14:11:35.289Z,16.97
2018-12-26T14:14:05.029Z,16.03
2018-12-26T14:16:34.964Z,15.27
2018-12-26T14:19:04.897Z,18.17
2018-12-26T14:21:34.148Z,15.57
2018-12-26T14:24:18.077Z,18.83
2018-12-26T14:26:48.282Z,18.47
2018-12-26T14:29:18.186Z,16.90
2018-12-26T14:31:47.528Z,18.03
2018-12-26T14:34:17.346Z,16.77
2018-12-26T14:36:46.824Z,18.70
2018-12-26T14:39:16.255Z,17.63
2018-12-26T14:41:46.123Z,17.63
2018-12-26T14:44:15.366Z,17.73
2018-12-26T14:46:45.190Z,18.63
2018-12-26T14:49:15.362Z,18.57
2018-12-26T14:51:45.349Z,20.50
2018-12-26T14:54:14.684Z,18.03
2018-12-26T14:56:44.517Z,20.03
2018-12-26T14:59:14.105Z,22.63
2018-12-26T15:01:44.093Z,20.40
2018-12-26T15:04:13.425Z,20.33
2018-12-26T15:06:43.302Z,22.10
2018-12-26T15:09:13.217Z,19.47
2018-12-26T15:11:43.135Z,21.70
2018-12-26T15:14:13.022Z,21.30
2018-12-26T15:16:42.360Z,18.60
2018-12-26T15:19:21.657Z,22.30
2018-12-26T15:21:51.577Z,23.90
2018-12-26T15:24:20.891Z,24.67
2018-12-26T15:26:50.738Z,26.80
2018-12-26T15:29:20.069Z,18.83
2018-12-26T15:31:49.289Z,23.27
2018-12-26T15:34:18.422Z,24.23
2018-12-26T15:36:48.535Z,20.03
2018-12-26T15:39:18.418Z,24.17
2018-12-26T15:41:48.403Z,27.73
2018-12-26T15:44:29.475Z,23.70
2018-12-26T15:46:58.826Z,20.47
2018-12-26T15:49:30.835Z,21.73
2018-12-26T15:52:00.773Z,25.70
2018-12-26T15:54:30.072Z,20.70
2018-12-26T15:56:59.355Z,24.60
2018-12-26T15:59:28.593Z,21.67
2018-12-26T16:01:57.765Z,24.57
2018-12-26T16:04:27.579Z,27.27
2018-12-26T16:06:56.903Z,23.90
2018-12-26T16:09:26.044Z,24.10
2018-12-26T16:11:55.197Z,23.33
2018-12-26T16:14:25.269Z,24.53
2018-12-26T16:16:55.116Z,23.73
2018-12-26T16:19:25.051Z,28.53
2018-12-26T16:21:54.990Z,24.20
2018-12-26T16:24:24.828Z,25.83
2018-12-26T16:26:54.090Z,27.43
2018-12-26T16:29:23.313Z,23.37
2018-12-26T16:31:53.117Z,27.87
2018-12-26T16:34:22.468Z,29.80
2018-12-26T16:36:51.665Z,32.17
2018-12-26T16:39:21.527Z,24.97
2018-12-26T16:41:50.833Z,32.57
2018-12-26T16:44:20.843Z,25.13
2018-12-26T16:46:50.660Z,28.90
2018-12-26T16:49:21.531Z,31.00
2018-12-26T16:51:50.833Z,28.27
2018-12-26T16:54:20.072Z,26.00
2018-12-26T16:56:49.211Z,29.10
2018-12-26T16:59:19.051Z,28.83
2018-12-26T17:01:48.353Z,27.37
2018-12-26T17:04:17.608Z,29.93
2018-12-26T17:06:48.643Z,27.27
2018-12-26T17:09:18.027Z,30.53
2018-12-26T17:11:47.940Z,28.40
2018-12-26T17:14:17.882Z,26.77
2018-12-26T17:16:47.925Z,28.33
2018-12-26T17:19:17.882Z,28.80
2018-12-26T17:21:47.819Z,27.47
2018-12-26T17:24:17.788Z,29.47
2018-12-26T17:26:47.776Z,27.10
2018-12-26T17:29:17.614Z,28.30
2018-12-26T17:31:46.920Z,32.83
2018-12-26T17:34:16.157Z,31.17
2018-12-26T17:36:45.295Z,30.07
2018-12-26T17:39:14.567Z,33.70
2018-12-26T17:41:44.369Z,33.30
2018-12-26T17:44:13.693Z,35.23
2018-12-26T17:46:42.915Z,33.03
2018-12-26T17:49:12.125Z,30.90
2018-12-26T17:51:41.343Z,30.50
2018-12-26T17:54:22.561Z,30.37
2018-12-26T17:57:02.744Z,35.17
2018-12-26T18:00:12.629Z,31.87
2018-12-26T18:02:45.472Z,31.77
2018-12-26T18:05:15.584Z,30.27
2018-12-26T18:07:45.476Z,55.70
2018-12-26T18:10:15.564Z,93.67
2018-12-26T18:12:45.481Z,73.77
2018-12-26T18:15:15.618Z,63.47
2018-12-26T18:17:45.183Z,55.33
2018-12-26T18:20:14.426Z,68.37
2018-12-26T18:22:43.744Z,52.43
2018-12-26T18:25:13.928Z,61.00
2018-12-26T18:27:43.224Z,82.70
2018-12-26T18:30:13.099Z,64.80
2018-12-26T18:32:42.408Z,114.97
2018-12-26T18:35:12.301Z,103.57
2018-12-26T18:37:41.541Z,51.27
2018-12-26T18:40:11.400Z,61.70
2018-12-26T18:42:40.731Z,116.60
2018-12-26T18:45:09.954Z,70.07
2018-12-26T18:47:39.177Z,43.07
2018-12-26T18:50:10.942Z,45.17
2018-12-26T18:52:40.858Z,80.43
2018-12-26T18:55:10.181Z,43.97
2018-12-26T18:57:39.969Z,58.83
2018-12-26T19:00:10.838Z,42.20
2018-12-26T19:02:40.141Z,44.40
2018-12-26T19:05:10.317Z,104.57
2018-12-26T19:07:39.558Z,80.67
2018-12-26T19:10:10.770Z,49.50
2018-12-26T19:12:40.766Z,42.97
2018-12-26T19:15:10.475Z,50.83
2018-12-26T19:17:40.423Z,112.70
2018-12-26T19:20:11.461Z,86.93
2018-12-26T19:22:41.293Z,45.03
2018-12-26T19:25:11.226Z,39.97
2018-12-26T19:27:41.276Z,66.00
2018-12-26T19:30:11.861Z,39.57
2018-12-26T19:32:41.857Z,37.23
2018-12-26T19:35:12.637Z,63.30
2018-12-26T19:37:42.165Z,43.93
2018-12-26T19:40:11.983Z,43.97
2018-12-26T19:42:41.357Z,62.03
2018-12-26T19:45:11.401Z,30.93
2018-12-26T19:47:41.094Z,63.73
2018-12-26T19:50:10.630Z,102.27
2018-12-26T19:52:40.542Z,75.13
2018-12-26T19:55:11.156Z,73.80
2018-12-26T19:57:41.286Z,77.87
2018-12-26T20:00:12.217Z,45.33
2018-12-26T20:02:42.137Z,48.30
2018-12-26T20:05:11.414Z,40.53
2018-12-26T20:07:40.944Z,101.30
2018-12-26T20:10:12.111Z,142.17
2018-12-26T20:12:41.457Z,96.93
2018-12-26T20:15:10.829Z,49.23
2018-12-26T20:17:40.670Z,48.47
2018-12-26T20:20:10.100Z,102.27
2018-12-26T20:22:39.350Z,81.60
2018-12-26T20:25:08.660Z,37.77
2018-12-26T20:27:37.926Z,73.93
2018-12-26T20:30:07.897Z,77.43
2018-12-26T20:32:37.662Z,55.43
2018-12-26T20:35:07.705Z,57.37
2018-12-26T20:37:36.963Z,56.13
2018-12-26T20:40:08.389Z,110.63
2018-12-26T20:42:37.870Z,60.53
2018-12-26T20:45:09.334Z,50.13
2018-12-26T20:47:39.680Z,43.97
2018-12-26T20:50:09.513Z,68.57
2018-12-26T20:52:39.977Z,54.13
2018-12-26T20:55:10.367Z,48.73
2018-12-26T20:57:40.590Z,33.07
2018-12-26T21:00:11.619Z,48.70
2018-12-26T21:02:41.751Z,53.50
2018-12-26T21:05:12.058Z,42.70
2018-12-26T21:07:41.406Z,36.23
2018-12-26T21:10:11.582Z,33.40
2018-12-26T21:12:40.978Z,40.53
2018-12-26T21:15:11.828Z,36.73
2018-12-26T21:17:41.384Z,33.40
2018-12-26T21:20:13.529Z,33.20
2018-12-26T21:22:43.457Z,30.97
2018-12-26T21:25:12.860Z,34.77
2018-12-26T21:27:42.774Z,33.33
2018-12-26T21:30:15.042Z,36.07
2018-12-26T21:32:45.450Z,34.57
2018-12-26T21:35:14.977Z,34.03
2018-12-26T21:37:44.307Z,37.47
2018-12-26T21:40:13.925Z,33.50
2018-12-26T21:42:43.045Z,33.63
2018-12-26T21:45:13.596Z,31.13
2018-12-26T21:47:43.004Z,29.00
2018-12-26T21:50:13.707Z,29.77
2018-12-26T21:52:43.917Z,33.90
2018-12-26T21:55:13.221Z,27.73
2018-12-26T21:57:42.643Z,30.97
2018-12-26T22:00:11.830Z,33.17
2018-12-26T22:02:41.303Z,34.53
2018-12-26T22:05:10.557Z,30.17
2018-12-26T22:07:39.728Z,21.47
2018-12-26T22:10:10.221Z,28.23
2018-12-26T22:12:40.265Z,39.03
2018-12-26T22:15:09.726Z,31.97
2018-12-26T22:17:40.097Z,40.63
2018-12-26T22:20:10.270Z,76.27
2018-12-26T22:22:40.253Z,50.40
2018-12-26T22:25:09.509Z,36.60
2018-12-26T22:27:38.734Z,43.93
2018-12-26T22:30:09.412Z,57.20
2018-12-26T22:32:38.645Z,56.77
2018-12-26T22:35:08.685Z,47.77
2018-12-26T22:37:38.545Z,35.60
2018-12-26T22:40:08.485Z,34.80
2018-12-26T22:42:38.413Z,64.07
2018-12-26T22:45:08.403Z,43.83
2018-12-26T22:47:38.254Z,41.23
2018-12-26T22:50:07.608Z,28.57
2018-12-26T22:52:37.563Z,34.63
2018-12-26T22:55:06.925Z,32.93
2018-12-26T22:57:36.776Z,33.37
2018-12-26T23:00:09.474Z,37.40
2018-12-26T23:02:39.389Z,35.33
2018-12-26T23:05:09.381Z,34.90
2018-12-26T23:07:38.672Z,33.03
2018-12-26T23:10:08.855Z,31.30
2018-12-26T23:12:38.769Z,30.97
2018-12-26T23:15:08.123Z,32.73
2018-12-26T23:17:37.973Z,24.10
2018-12-26T23:20:07.985Z,30.50
2018-12-26T23:22:37.895Z,37.87
2018-12-26T23:25:07.829Z,28.83
2018-12-26T23:27:37.737Z,32.70
2018-12-26T23:30:07.255Z,29.40
2018-12-26T23:32:37.309Z,26.87
2018-12-26T23:35:07.252Z,28.17
2018-12-26T23:37:37.159Z,30.53
2018-12-26T23:40:07.077Z,36.57
2018-12-26T23:42:36.387Z,31.13
2018-12-26T23:45:05.961Z,27.90
2018-12-26T23:47:35.196Z,30.93
2018-12-26T23:50:05.690Z,29.90
2018-12-26T23:52:35.834Z,32.40
2018-12-26T23:55:05.509Z,29.90
2018-12-26T23:57:35.543Z,29.47
